sensor_id;sensor_type;location;lat;lon;timestamp;pressure;altitude;pressure_sealevel;temperature;humidity
46303;BME280;32029;51.358;5.628;2023-02-04T00:00:04;103013.81;;;11.11;88.58
46303;BME280;32029;51.358;5.628;2023-02-04T00:02:33;102992.22;;;10.97;88.17
46303;BME280;32029;51.358;5.628;2023-02-04T00:05:06;102949.19;;;10.76;88.29
46303;BME280;32029;51.358;5.628;2023-02-04T00:07:49;102965.66;;;10.76;88.50
46303;BME280;32029;51.358;5.628;2023-02-04T00:10:30;102956.53;;;10.76;88.51
46303;BME280;32029;51.358;5.628;2023-02-04T00:13:15;102977.03;;;10.93;88.88
46303;BME280;32029;51.358;5.628;2023-02-04T00:15:57;102997.31;;;11.01;89.25
46303;BME280;32029;51.358;5.628;2023-02-04T00:18:40;103001.66;;;11.04;89.47
46303;BME280;32029;51.358;5.628;2023-02-04T00:21:21;102986.00;;;10.95;89.83
46303;BME280;32029;51.358;5.628;2023-02-04T00:24:08;102980.31;;;10.87;89.51
46303;BME280;32029;51.358;5.628;2023-02-04T00:26:48;102997.75;;;11.07;89.58
46303;BME280;32029;51.358;5.628;2023-02-04T00:29:28;102976.72;;;10.96;89.54
46303;BME280;32029;51.358;5.628;2023-02-04T00:32:13;103007.59;;;11.09;89.78
46303;BME280;32029;51.358;5.628;2023-02-04T00:34:56;102958.91;;;10.81;89.88
46303;BME280;32029;51.358;5.628;2023-02-04T00:37:43;103010.09;;;11.12;89.13
46303;BME280;32029;51.358;5.628;2023-02-04T00:40:21;103016.72;;;11.10;89.15
46303;BME280;32029;51.358;5.628;2023-02-04T00:43:01;103013.81;;;11.11;89.13
46303;BME280;32029;51.358;5.628;2023-02-04T00:45:41;102979.28;;;10.88;89.00
46303;BME280;32029;51.358;5.628;2023-02-04T00:48:21;102973.81;;;10.88;88.94
46303;BME280;32029;51.358;5.628;2023-02-04T00:50:58;102970.94;;;10.89;88.85
46303;BME280;32029;51.358;5.628;2023-02-04T00:53:42;103027.28;;;11.14;88.73
46303;BME280;32029;51.358;5.628;2023-02-04T00:56:23;103016.72;;;11.10;88.40
46303;BME280;32029;51.358;5.628;2023-02-04T00:59:07;103020.31;;;11.10;88.75
46303;BME280;32029;51.358;5.628;2023-02-04T01:01:50;103026.28;;;11.15;88.37
46303;BME280;32029;51.358;5.628;2023-02-04T01:04:32;103016.13;;;11.06;88.28
46303;BME280;32029;51.358;5.628;2023-02-04T01:07:18;102992.16;;;10.87;88.35
46303;BME280;32029;51.358;5.628;2023-02-04T01:10:02;102969.16;;;10.78;88.45
46303;BME280;32029;51.358;5.628;2023-02-04T01:12:46;103026.94;;;11.08;88.43
46303;BME280;32029;51.358;5.628;2023-02-04T01:15:28;103033.66;;;11.15;88.30
46303;BME280;32029;51.358;5.628;2023-02-04T01:18:12;103036.41;;;11.15;87.84
46303;BME280;32029;51.358;5.628;2023-02-04T01:20:59;103045.06;;;11.10;87.85
46303;BME280;32029;51.358;5.628;2023-02-04T01:23:35;103006.03;;;10.86;87.93
46303;BME280;32029;51.358;5.628;2023-02-04T01:26:14;102992.66;;;10.71;88.19
46303;BME280;32029;51.358;5.628;2023-02-04T01:28:58;103009.22;;;10.81;88.18
46303;BME280;32029;51.358;5.628;2023-02-04T01:31:39;103043.25;;;10.99;87.89
46303;BME280;32029;51.358;5.628;2023-02-04T01:34:22;103018.31;;;10.82;88.01
46303;BME280;32029;51.358;5.628;2023-02-04T01:36:59;103022.16;;;10.69;88.13
46303;BME280;32029;51.358;5.628;2023-02-04T01:39:29;103018.47;;;10.59;88.22
46303;BME280;32029;51.358;5.628;2023-02-04T01:42:05;103053.53;;;10.76;88.54
46303;BME280;32029;51.358;5.628;2023-02-04T01:44:40;103041.03;;;10.63;88.28
46303;BME280;32029;51.358;5.628;2023-02-04T01:47:20;103060.59;;;10.69;88.52
46303;BME280;32029;51.358;5.628;2023-02-04T01:50:00;103060.97;;;10.65;88.04
46303;BME280;32029;51.358;5.628;2023-02-04T01:53:01;103060.38;;;10.61;87.93
46303;BME280;32029;51.358;5.628;2023-02-04T01:55:43;103046.38;;;10.43;88.01
46303;BME280;32029;51.358;5.628;2023-02-04T01:58:21;103047.19;;;10.34;87.75
46303;BME280;32029;51.358;5.628;2023-02-04T02:01:04;103070.94;;;10.45;88.03
46303;BME280;32029;51.358;5.628;2023-02-04T02:03:37;103014.09;;;10.03;88.12
46303;BME280;32029;51.358;5.628;2023-02-04T02:06:14;103083.31;;;10.39;87.85
46303;BME280;32029;51.358;5.628;2023-02-04T02:08:53;103087.34;;;10.35;88.11
46303;BME280;32029;51.358;5.628;2023-02-04T02:11:24;103076.59;;;10.32;88.12
46303;BME280;32029;51.358;5.628;2023-02-04T02:14:05;103029.19;;;9.98;87.77
46303;BME280;32029;51.358;5.628;2023-02-04T02:16:49;103086.56;;;10.22;87.60
46303;BME280;32029;51.358;5.628;2023-02-04T02:19:40;103085.25;;;10.16;87.69
46303;BME280;32029;51.358;5.628;2023-02-04T02:22:29;103084.78;;;10.11;87.95
46303;BME280;32029;51.358;5.628;2023-02-04T02:25:13;103047.47;;;9.76;88.39
46303;BME280;32029;51.358;5.628;2023-02-04T02:27:58;103022.06;;;9.63;88.57
46303;BME280;32029;51.358;5.628;2023-02-04T02:30:50;103083.78;;;10.01;88.24
46303;BME280;32029;51.358;5.628;2023-02-04T02:33:35;103095.00;;;9.98;87.99
46303;BME280;32029;51.358;5.628;2023-02-04T02:36:20;103085.31;;;9.94;87.82
46303;BME280;32029;51.358;5.628;2023-02-04T02:38:58;103087.44;;;9.90;88.23
46303;BME280;32029;51.358;5.628;2023-02-04T02:41:27;103061.56;;;9.72;87.90
46303;BME280;32029;51.358;5.628;2023-02-04T02:44:01;103046.00;;;9.61;88.37
46303;BME280;32029;51.358;5.628;2023-02-04T02:46:45;103050.00;;;9.57;88.28
46303;BME280;32029;51.358;5.628;2023-02-04T02:49:34;103067.16;;;9.59;88.21
46303;BME280;32029;51.358;5.628;2023-02-04T02:52:17;103101.44;;;9.76;88.11
46303;BME280;32029;51.358;5.628;2023-02-04T02:54:59;103073.66;;;9.47;88.01
46303;BME280;32029;51.358;5.628;2023-02-04T02:57:43;103108.28;;;9.70;87.99
46303;BME280;32029;51.358;5.628;2023-02-04T03:00:30;103087.59;;;9.55;87.82
46303;BME280;32029;51.358;5.628;2023-02-04T03:03:23;103109.91;;;9.62;87.49
46303;BME280;32029;51.358;5.628;2023-02-04T03:06:15;103113.03;;;9.57;87.34
46303;BME280;32029;51.358;5.628;2023-02-04T03:08:53;103112.56;;;9.52;86.97
46303;BME280;32029;51.358;5.628;2023-02-04T03:11:25;103050.50;;;9.06;87.15
46303;BME280;32029;51.358;5.628;2023-02-04T03:14:04;103109.66;;;9.42;87.58
46303;BME280;32029;51.358;5.628;2023-02-04T03:16:39;103094.72;;;9.24;87.75
46303;BME280;32029;51.358;5.628;2023-02-04T03:19:15;103121.13;;;9.36;87.31
46303;BME280;32029;51.358;5.628;2023-02-04T03:21:53;103115.03;;;9.32;87.63
46303;BME280;32029;51.358;5.628;2023-02-04T03:24:24;103112.63;;;9.28;86.84
46303;BME280;32029;51.358;5.628;2023-02-04T03:26:53;103042.28;;;8.83;87.07
46303;BME280;32029;51.358;5.628;2023-02-04T03:29:22;103105.78;;;9.11;86.93
46303;BME280;32029;51.358;5.628;2023-02-04T03:31:53;103108.03;;;9.06;86.49
46303;BME280;32029;51.358;5.628;2023-02-04T03:34:31;103070.38;;;8.74;86.47
46303;BME280;32029;51.358;5.628;2023-02-04T03:37:11;103063.00;;;8.64;86.10
46303;BME280;32029;51.358;5.628;2023-02-04T03:39:53;103063.75;;;8.54;86.28
46303;BME280;32029;51.358;5.628;2023-02-04T03:42:35;103115.91;;;8.75;86.04
46303;BME280;32029;51.358;5.628;2023-02-04T03:45:10;103119.66;;;8.74;85.60
46303;BME280;32029;51.358;5.628;2023-02-04T03:47:41;103092.44;;;8.49;85.62
46303;BME280;32029;51.358;5.628;2023-02-04T03:50:12;103135.81;;;8.66;85.58
46303;BME280;32029;51.358;5.628;2023-02-04T03:52:58;103165.66;;;8.69;85.84
46303;BME280;32029;51.358;5.628;2023-02-04T03:55:41;103084.59;;;8.20;85.90
46303;BME280;32029;51.358;5.628;2023-02-04T03:58:29;103159.53;;;8.66;86.78
46303;BME280;32029;51.358;5.628;2023-02-04T04:01:12;103163.28;;;8.65;87.29
46303;BME280;32029;51.358;5.628;2023-02-04T04:03:46;103141.22;;;8.55;87.63
46303;BME280;32029;51.358;5.628;2023-02-04T04:06:21;103125.28;;;8.49;87.54
46303;BME280;32029;51.358;5.628;2023-02-04T04:08:57;103148.38;;;8.69;87.97
46303;BME280;32029;51.358;5.628;2023-02-04T04:11:40;103097.63;;;8.41;88.59
46303;BME280;32029;51.358;5.628;2023-02-04T04:14:18;103099.63;;;8.39;89.09
46303;BME280;32029;51.358;5.628;2023-02-04T04:16:52;103141.56;;;8.74;89.24
46303;BME280;32029;51.358;5.628;2023-02-04T04:19:30;103145.91;;;8.77;89.38
46303;BME280;32029;51.358;5.628;2023-02-04T04:22:11;103158.53;;;8.91;89.67
46303;BME280;32029;51.358;5.628;2023-02-04T04:24:43;103156.28;;;8.96;89.58
46303;BME280;32029;51.358;5.628;2023-02-04T04:27:12;103113.41;;;8.72;89.80
46303;BME280;32029;51.358;5.628;2023-02-04T04:29:46;103159.94;;;9.07;89.75
46303;BME280;32029;51.358;5.628;2023-02-04T04:32:25;103146.59;;;9.03;89.82
46303;BME280;32029;51.358;5.628;2023-02-04T04:35:07;103155.97;;;9.12;90.19
46303;BME280;32029;51.358;5.628;2023-02-04T04:37:48;103161.19;;;9.15;90.08
46303;BME280;32029;51.358;5.628;2023-02-04T04:40:25;103149.84;;;9.08;90.46
46303;BME280;32029;51.358;5.628;2023-02-04T04:42:55;103157.59;;;9.14;91.43
46303;BME280;32029;51.358;5.628;2023-02-04T04:45:31;103160.34;;;9.14;91.84
46303;BME280;32029;51.358;5.628;2023-02-04T04:48:01;103146.75;;;9.01;92.60
46303;BME280;32029;51.358;5.628;2023-02-04T04:50:38;103039.94;;;8.44;92.58
46303;BME280;32029;51.358;5.628;2023-02-04T04:53:07;103131.28;;;9.00;92.78
46303;BME280;32029;51.358;5.628;2023-02-04T04:55:47;103171.19;;;9.27;92.66
46303;BME280;32029;51.358;5.628;2023-02-04T04:58:31;103176.28;;;9.31;92.42
46303;BME280;32029;51.358;5.628;2023-02-04T05:01:17;103105.50;;;8.92;92.24
46303;BME280;32029;51.358;5.628;2023-02-04T05:04:01;103100.03;;;8.92;92.22
46303;BME280;32029;51.358;5.628;2023-02-04T05:06:47;103142.25;;;9.12;92.31
46303;BME280;32029;51.358;5.628;2023-02-04T05:09:35;103152.59;;;9.19;91.73
46303;BME280;32029;51.358;5.628;2023-02-04T05:12:41;103103.41;;;8.95;92.07
46303;BME280;32029;51.358;5.628;2023-02-04T05:15:24;103168.06;;;9.31;92.25
46303;BME280;32029;51.358;5.628;2023-02-04T05:18:08;103173.81;;;9.28;92.77
46303;BME280;32029;51.358;5.628;2023-02-04T05:20:53;103174.69;;;9.29;93.21
46303;BME280;32029;51.358;5.628;2023-02-04T05:23:34;103175.78;;;9.26;93.88
46303;BME280;32029;51.358;5.628;2023-02-04T05:26:16;103162.84;;;9.28;93.88
46303;BME280;32029;51.358;5.628;2023-02-04T05:29:05;103191.41;;;9.48;93.52
46303;BME280;32029;51.358;5.628;2023-02-04T05:31:49;103188.75;;;9.47;93.48
46303;BME280;32029;51.358;5.628;2023-02-04T05:34:37;103197.88;;;9.58;93.71
46303;BME280;32029;51.358;5.628;2023-02-04T05:37:20;103197.25;;;9.66;93.44
46303;BME280;32029;51.358;5.628;2023-02-04T05:40:06;103174.22;;;9.57;92.85
46303;BME280;32029;51.358;5.628;2023-02-04T05:42:51;103194.75;;;9.63;92.96
46303;BME280;32029;51.358;5.628;2023-02-04T05:45:31;103108.53;;;9.11;92.79
46303;BME280;32029;51.358;5.628;2023-02-04T05:48:12;103174.97;;;9.48;92.99
46303;BME280;32029;51.358;5.628;2023-02-04T05:50:54;103200.25;;;9.63;93.00
46303;BME280;32029;51.358;5.628;2023-02-04T05:53:37;103177.31;;;9.53;92.91
46303;BME280;32029;51.358;5.628;2023-02-04T05:56:23;103208.75;;;9.71;92.87
46303;BME280;32029;51.358;5.628;2023-02-04T05:59:07;103188.03;;;9.56;92.70
46303;BME280;32029;51.358;5.628;2023-02-04T06:01:49;103220.59;;;9.72;92.89
46303;BME280;32029;51.358;5.628;2023-02-04T06:04:36;103206.63;;;9.64;93.17
46303;BME280;32029;51.358;5.628;2023-02-04T06:07:21;103217.56;;;9.75;92.90
46303;BME280;32029;51.358;5.628;2023-02-04T06:10:05;103228.19;;;9.79;93.39
46303;BME280;32029;51.358;5.628;2023-02-04T06:12:50;103227.66;;;9.86;93.47
46303;BME280;32029;51.358;5.628;2023-02-04T06:15:32;103147.91;;;9.44;92.72
46303;BME280;32029;51.358;5.628;2023-02-04T06:18:15;103217.19;;;9.91;92.97
46303;BME280;32029;51.358;5.628;2023-02-04T06:20:50;103173.59;;;9.65;92.80
46303;BME280;32029;51.358;5.628;2023-02-04T06:23:17;103217.56;;;9.86;92.46
46303;BME280;32029;51.358;5.628;2023-02-04T06:25:45;103227.81;;;9.95;92.61
46303;BME280;32029;51.358;5.628;2023-02-04T06:28:20;103204.75;;;9.75;92.32
46303;BME280;32029;51.358;5.628;2023-02-04T06:30:57;103200.13;;;9.76;92.05
46303;BME280;32029;51.358;5.628;2023-02-04T06:33:28;103240.53;;;9.96;91.41
46303;BME280;32029;51.358;5.628;2023-02-04T06:35:56;103211.22;;;9.74;91.57
46303;BME280;32029;51.358;5.628;2023-02-04T06:38:23;103243.41;;;9.95;91.75
46303;BME280;32029;51.358;5.628;2023-02-04T06:40:50;103203.84;;;9.75;91.45
46303;BME280;32029;51.358;5.628;2023-02-04T06:43:20;103261.31;;;10.10;91.61
46303;BME280;32029;51.358;5.628;2023-02-04T06:45:55;103230.41;;;9.97;91.82
46303;BME280;32029;51.358;5.628;2023-02-04T06:48:36;103267.56;;;10.12;91.41
46303;BME280;32029;51.358;5.628;2023-02-04T06:51:19;103220.84;;;9.80;91.36
46303;BME280;32029;51.358;5.628;2023-02-04T06:54:01;103220.31;;;9.75;91.73
46303;BME280;32029;51.358;5.628;2023-02-04T06:56:43;103272.81;;;10.04;91.58
46303;BME280;32029;51.358;5.628;2023-02-04T06:59:26;103279.78;;;10.08;91.19
46303;BME280;32029;51.358;5.628;2023-02-04T07:02:09;103267.06;;;9.96;91.78
46303;BME280;32029;51.358;5.628;2023-02-04T07:04:52;103237.16;;;9.81;91.37
46303;BME280;32029;51.358;5.628;2023-02-04T07:07:29;103283.78;;;10.15;91.66
46303;BME280;32029;51.358;5.628;2023-02-04T07:10:04;103292.66;;;10.19;91.42
46303;BME280;32029;51.358;5.628;2023-02-04T07:12:36;103281.03;;;10.15;91.45
46303;BME280;32029;51.358;5.628;2023-02-04T07:15:04;103238.41;;;9.89;91.08
46303;BME280;32029;51.358;5.628;2023-02-04T07:17:34;103283.16;;;10.23;90.93
46303;BME280;32029;51.358;5.628;2023-02-04T07:20:04;103285.03;;;10.22;90.95
46303;BME280;32029;51.358;5.628;2023-02-04T07:22:34;103252.59;;;9.94;90.98
46303;BME280;32029;51.358;5.628;2023-02-04T07:25:06;103289.91;;;10.19;91.22
46303;BME280;32029;51.358;5.628;2023-02-04T07:27:35;103294.38;;;10.20;90.61
46303;BME280;32029;51.358;5.628;2023-02-04T07:30:15;103263.47;;;10.06;91.25
46303;BME280;32029;51.358;5.628;2023-02-04T07:33:02;103267.81;;;10.09;91.09
46303;BME280;32029;51.358;5.628;2023-02-04T07:35:48;103304.25;;;10.34;90.60
46303;BME280;32029;51.358;5.628;2023-02-04T07:38:33;103267.09;;;10.07;90.76
46303;BME280;32029;51.358;5.628;2023-02-04T07:41:10;103317.25;;;10.32;90.84
46303;BME280;32029;51.358;5.628;2023-02-04T07:43:46;103290.63;;;10.10;90.63
46303;BME280;32029;51.358;5.628;2023-02-04T07:46:22;103288.28;;;10.05;90.55
46303;BME280;32029;51.358;5.628;2023-02-04T07:48:56;103260.81;;;9.82;91.09
46303;BME280;32029;51.358;5.628;2023-02-04T07:51:26;103294.91;;;10.02;91.14
46303;BME280;32029;51.358;5.628;2023-02-04T07:53:58;103276.56;;;9.92;91.19
46303;BME280;32029;51.358;5.628;2023-02-04T07:56:29;103284.41;;;9.96;91.04
46303;BME280;32029;51.358;5.628;2023-02-04T07:59:02;103329.81;;;10.23;91.69
46303;BME280;32029;51.358;5.628;2023-02-04T08:01:44;103262.72;;;9.93;91.58
46303;BME280;32029;51.358;5.628;2023-02-04T08:04:19;103274.31;;;9.97;91.42
46303;BME280;32029;51.358;5.628;2023-02-04T08:06:51;103259.09;;;9.93;91.47
46303;BME280;32029;51.358;5.628;2023-02-04T08:09:21;103291.88;;;10.05;91.36
46303;BME280;32029;51.358;5.628;2023-02-04T08:11:53;103220.06;;;9.67;90.93
46303;BME280;32029;51.358;5.628;2023-02-04T08:14:28;103335.81;;;10.39;91.35
46303;BME280;32029;51.358;5.628;2023-02-04T08:17:03;103337.69;;;10.39;91.34
46303;BME280;32029;51.358;5.628;2023-02-04T08:19:35;103313.34;;;10.23;91.76
46303;BME280;32029;51.358;5.628;2023-02-04T08:22:15;103346.91;;;10.49;91.77
46303;BME280;32029;51.358;5.628;2023-02-04T08:24:59;103309.38;;;10.38;91.52
46303;BME280;32029;51.358;5.628;2023-02-04T08:27:44;103346.03;;;10.60;91.33
46303;BME280;32029;51.358;5.628;2023-02-04T08:30:20;103300.78;;;10.32;91.46
46303;BME280;32029;51.358;5.628;2023-02-04T08:32:53;103325.00;;;10.38;91.41
46303;BME280;32029;51.358;5.628;2023-02-04T08:35:24;103357.25;;;10.68;91.22
46303;BME280;32029;51.358;5.628;2023-02-04T08:37:52;103333.47;;;10.57;91.33
46303;BME280;32029;51.358;5.628;2023-02-04T08:40:28;103358.75;;;10.72;90.82
46303;BME280;32029;51.358;5.628;2023-02-04T08:43:12;103360.75;;;10.70;90.63
46303;BME280;32029;51.358;5.628;2023-02-04T08:45:54;103308.88;;;10.33;90.83
46303;BME280;32029;51.358;5.628;2023-02-04T08:48:25;103312.47;;;10.45;91.11
46303;BME280;32029;51.358;5.628;2023-02-04T08:51:06;103306.88;;;10.46;90.98
46303;BME280;32029;51.358;5.628;2023-02-04T08:53:49;103304.75;;;10.50;90.79
46303;BME280;32029;51.358;5.628;2023-02-04T08:56:31;103334.66;;;10.64;91.09
46303;BME280;32029;51.358;5.628;2023-02-04T08:59:08;103320.22;;;10.62;90.55
46303;BME280;32029;51.358;5.628;2023-02-04T09:01:47;103313.47;;;10.66;90.36
46303;BME280;32029;51.358;5.628;2023-02-04T09:04:22;103371.66;;;11.03;90.63
46303;BME280;32029;51.358;5.628;2023-02-04T09:06:52;103366.78;;;11.07;90.65
46303;BME280;32029;51.358;5.628;2023-02-04T09:09:25;103327.63;;;10.94;90.27
46303;BME280;32029;51.358;5.628;2023-02-04T09:11:58;103308.41;;;10.94;90.02
46303;BME280;32029;51.358;5.628;2023-02-04T09:14:38;103381.69;;;11.37;89.92
46303;BME280;32029;51.358;5.628;2023-02-04T09:17:15;103360.84;;;11.34;89.63
46303;BME280;32029;51.358;5.628;2023-02-04T09:19:54;103351.19;;;11.40;89.79
46303;BME280;32029;51.358;5.628;2023-02-04T09:22:34;103365.38;;;11.56;89.27
46303;BME280;32029;51.358;5.628;2023-02-04T09:25:19;103396.50;;;11.77;89.28
46303;BME280;32029;51.358;5.628;2023-02-04T09:28:06;103382.97;;;11.86;89.12
46303;BME280;32029;51.358;5.628;2023-02-04T09:30:51;103385.97;;;11.94;88.49
46303;BME280;32029;51.358;5.628;2023-02-04T09:33:28;103383.94;;;11.96;88.22
46303;BME280;32029;51.358;5.628;2023-02-04T09:36:05;103390.38;;;12.06;87.88
46303;BME280;32029;51.358;5.628;2023-02-04T09:38:40;103377.16;;;12.00;88.03
46303;BME280;32029;51.358;5.628;2023-02-04T09:41:15;103397.28;;;12.21;87.61
46303;BME280;32029;51.358;5.628;2023-02-04T09:43:52;103398.63;;;12.27;87.08
46303;BME280;32029;51.358;5.628;2023-02-04T09:46:46;103402.72;;;12.33;87.13
46303;BME280;32029;51.358;5.628;2023-02-04T09:49:31;103411.53;;;12.36;86.62
46303;BME280;32029;51.358;5.628;2023-02-04T09:52:13;103387.25;;;12.20;86.16
46303;BME280;32029;51.358;5.628;2023-02-04T09:55:00;103369.56;;;12.13;86.51
46303;BME280;32029;51.358;5.628;2023-02-04T09:57:46;103334.84;;;12.01;86.98
46303;BME280;32029;51.358;5.628;2023-02-04T10:00:33;103412.06;;;12.51;86.30
46303;BME280;32029;51.358;5.628;2023-02-04T10:03:23;103408.94;;;12.65;86.26
46303;BME280;32029;51.358;5.628;2023-02-04T10:06:08;103379.50;;;12.56;85.56
46303;BME280;32029;51.358;5.628;2023-02-04T10:08:53;103361.59;;;12.41;85.34
46303;BME280;32029;51.358;5.628;2023-02-04T10:11:41;103367.09;;;12.41;85.31
46303;BME280;32029;51.358;5.628;2023-02-04T10:14:30;103384.34;;;12.43;85.57
46303;BME280;32029;51.358;5.628;2023-02-04T10:17:19;103398.03;;;12.54;86.27
46303;BME280;32029;51.358;5.628;2023-02-04T10:20:11;103371.59;;;12.42;85.61
46303;BME280;32029;51.358;5.628;2023-02-04T10:22:56;103417.56;;;12.82;85.28
46303;BME280;32029;51.358;5.628;2023-02-04T10:25:44;103417.03;;;12.88;84.23
46303;BME280;32029;51.358;5.628;2023-02-04T10:28:35;103363.97;;;12.55;83.91
46303;BME280;32029;51.358;5.628;2023-02-04T10:37:22;103425.03;;;13.00;82.92
46303;BME280;32029;51.358;5.628;2023-02-04T10:39:50;103416.91;;;12.99;83.30
46303;BME280;32029;51.358;5.628;2023-02-04T10:42:28;103409.63;;;12.98;82.52
46303;BME280;32029;51.358;5.628;2023-02-04T10:45:28;103424.88;;;13.02;82.44
46303;BME280;32029;51.358;5.628;2023-02-04T10:48:21;103423.59;;;13.06;81.76
46303;BME280;32029;51.358;5.628;2023-02-04T10:51:18;103397.72;;;12.88;80.48
46303;BME280;32029;51.358;5.628;2023-02-04T10:54:04;103432.16;;;13.03;80.41
46303;BME280;32029;51.358;5.628;2023-02-04T11:00:04;103386.06;;;12.74;80.19
46303;BME280;32029;51.358;5.628;2023-02-04T11:03:06;103416.59;;;12.92;80.28
46303;BME280;32029;51.358;5.628;2023-02-04T11:05:52;103416.75;;;13.00;80.14
46303;BME280;32029;51.358;5.628;2023-02-04T11:08:32;103430.28;;;13.13;79.27
46303;BME280;32029;51.358;5.628;2023-02-04T11:11:10;103428.09;;;13.07;80.05
46303;BME280;32029;51.358;5.628;2023-02-04T11:13:45;103424.88;;;13.02;81.06
46303;BME280;32029;51.358;5.628;2023-02-04T11:16:28;103423.28;;;12.99;80.72
46303;BME280;32029;51.358;5.628;2023-02-04T11:19:02;103429.25;;;13.14;80.32
46303;BME280;32029;51.358;5.628;2023-02-04T11:24:25;103419.75;;;13.38;78.25
46303;BME280;32029;51.358;5.628;2023-02-04T11:27:17;103414.97;;;13.40;77.72
46303;BME280;32029;51.358;5.628;2023-02-04T11:29:47;103403.66;;;13.43;77.53
46303;BME280;32029;51.358;5.628;2023-02-04T11:32:37;103352.25;;;13.22;76.54
46303;BME280;32029;51.358;5.628;2023-02-04T11:35:23;103414.13;;;13.68;76.00
46303;BME280;32029;51.358;5.628;2023-02-04T11:37:59;103369.13;;;13.48;76.13
46303;BME280;32029;51.358;5.628;2023-02-04T11:40:43;103412.81;;;13.53;76.11
46303;BME280;32029;51.358;5.628;2023-02-04T11:43:37;103385.53;;;13.31;76.43
46303;BME280;32029;51.358;5.628;2023-02-04T11:46:19;103367.03;;;13.21;75.56
46303;BME280;32029;51.358;5.628;2023-02-04T11:49:01;103381.84;;;13.20;76.28
46303;BME280;32029;51.358;5.628;2023-02-04T11:51:49;103360.50;;;13.03;75.44
46303;BME280;32029;51.358;5.628;2023-02-04T11:54:34;103362.94;;;12.96;76.08
46303;BME280;32029;51.358;5.628;2023-02-04T11:57:18;103390.97;;;13.21;75.50
46303;BME280;32029;51.358;5.628;2023-02-04T12:00:03;103345.25;;;12.99;75.50
46303;BME280;32029;51.358;5.628;2023-02-04T12:02:45;103372.88;;;13.28;75.11
46303;BME280;32029;51.358;5.628;2023-02-04T12:05:20;103315.94;;;12.98;74.32
46303;BME280;32029;51.358;5.628;2023-02-04T12:07:50;103414.13;;;13.59;73.84
46303;BME280;32029;51.358;5.628;2023-02-04T12:10:32;103381.59;;;13.43;74.02
46303;BME280;32029;51.358;5.628;2023-02-04T12:13:18;103339.50;;;13.31;74.90
46303;BME280;32029;51.358;5.628;2023-02-04T12:16:10;103382.47;;;13.63;73.24
46303;BME280;32029;51.358;5.628;2023-02-04T12:18:53;103371.16;;;13.66;72.92
46303;BME280;32029;51.358;5.628;2023-02-04T12:21:40;103384.22;;;13.73;73.24
46303;BME280;32029;51.358;5.628;2023-02-04T12:24:26;103414.44;;;13.85;72.69
46303;BME280;32029;51.358;5.628;2023-02-04T12:27:02;103376.06;;;13.53;72.71
46303;BME280;32029;51.358;5.628;2023-02-04T12:29:34;103364.47;;;13.49;72.33
46303;BME280;32029;51.358;5.628;2023-02-04T12:32:07;103393.50;;;13.63;72.06
46303;BME280;32029;51.358;5.628;2023-02-04T12:34:43;103372.72;;;13.49;72.94
46303;BME280;32029;51.358;5.628;2023-02-04T12:37:31;103422.38;;;13.88;73.33
46303;BME280;32029;51.358;5.628;2023-02-04T12:40:26;103417.91;;;13.96;73.71
46303;BME280;32029;51.358;5.628;2023-02-04T12:43:03;103393.94;;;13.87;73.51
46303;BME280;32029;51.358;5.628;2023-02-04T12:45:33;103420.06;;;14.12;73.50
46303;BME280;32029;51.358;5.628;2023-02-04T12:48:03;103416.97;;;14.15;72.13
46303;BME280;32029;51.358;5.628;2023-02-04T12:50:33;103369.38;;;13.94;72.07
46303;BME280;32029;51.358;5.628;2023-02-04T12:53:05;103385.91;;;14.13;71.76
46303;BME280;32029;51.358;5.628;2023-02-04T12:55:44;103429.00;;;14.34;71.46
46303;BME280;32029;51.358;5.628;2023-02-04T12:58:25;103419.00;;;14.23;71.44
46303;BME280;32029;51.358;5.628;2023-02-04T13:01:08;103425.72;;;14.11;71.07
46303;BME280;32029;51.358;5.628;2023-02-04T13:03:51;103373.75;;;13.67;71.50
46303;BME280;32029;51.358;5.628;2023-02-04T13:06:35;103351.97;;;13.64;71.84
46303;BME280;32029;51.358;5.628;2023-02-04T13:09:10;103422.81;;;14.12;71.25
46303;BME280;32029;51.358;5.628;2023-02-04T13:11:38;103427.44;;;14.21;70.91
46303;BME280;32029;51.358;5.628;2023-02-04T13:14:08;103418.75;;;14.16;69.97
46303;BME280;32029;51.358;5.628;2023-02-04T13:16:37;103418.75;;;14.16;69.94
46303;BME280;32029;51.358;5.628;2023-02-04T13:19:10;103417.84;;;14.26;69.89
46303;BME280;32029;51.358;5.628;2023-02-04T13:21:43;103379.50;;;14.13;69.73
46303;BME280;32029;51.358;5.628;2023-02-04T13:24:11;103355.47;;;14.23;69.29
46303;BME280;32029;51.358;5.628;2023-02-04T13:26:42;103401.72;;;14.68;69.30
46303;BME280;32029;51.358;5.628;2023-02-04T13:29:21;103398.91;;;14.78;69.12
46303;BME280;32029;51.358;5.628;2023-02-04T13:32:06;103368.88;;;14.65;68.44
46303;BME280;32029;51.358;5.628;2023-02-04T13:34:44;103393.94;;;14.81;68.65
46303;BME280;32029;51.358;5.628;2023-02-04T13:37:19;103402.81;;;14.85;67.58
46303;BME280;32029;51.358;5.628;2023-02-04T13:40:00;103401.72;;;14.68;67.39
46303;BME280;32029;51.358;5.628;2023-02-04T13:42:33;103340.97;;;14.21;67.03
46303;BME280;32029;51.358;5.628;2023-02-04T13:45:09;103393.94;;;14.44;66.95
46303;BME280;32029;51.358;5.628;2023-02-04T13:47:52;103403.97;;;14.35;67.62
46303;BME280;32029;51.358;5.628;2023-02-04T13:50:38;103340.88;;;14.03;67.60
46303;BME280;32029;51.358;5.628;2023-02-04T13:53:21;103345.97;;;13.98;68.05
46303;BME280;32029;51.358;5.628;2023-02-04T13:56:10;103349.03;;;13.95;68.05
46303;BME280;32029;51.358;5.628;2023-02-04T13:58:53;103391.66;;;14.30;67.82
46303;BME280;32029;51.358;5.628;2023-02-04T14:01:37;103389.94;;;14.29;68.08
46303;BME280;32029;51.358;5.628;2023-02-04T14:04:20;103388.50;;;14.25;68.84
46303;BME280;32029;51.358;5.628;2023-02-04T14:07:00;103374.13;;;14.11;68.76
46303;BME280;32029;51.358;5.628;2023-02-04T14:09:56;103398.06;;;14.30;69.19